createdAt,value
2018-07-26T00:00:54.963Z,955.17
2018-07-26T00:01:54.961Z,955.19
2018-07-26T00:02:54.956Z,955.12
2018-07-26T00:03:54.953Z,955.15
2018-07-26T00:04:54.949Z,955.13
2018-07-26T00:05:54.949Z,955.12
2018-07-26T00:06:54.945Z,955.15
2018-07-26T00:07:54.941Z,955.15
2018-07-26T00:08:54.937Z,955.12
2018-07-26T00:09:54.935Z,955.12
2018-07-26T00:10:54.932Z,955.11
2018-07-26T00:11:54.939Z,955.17
2018-07-26T00:12:54.926Z,955.15
2018-07-26T00:13:54.927Z,955.16
2018-07-26T00:14:54.920Z,955.15
2018-07-26T00:15:54.921Z,955.13
2018-07-26T00:16:54.913Z,955.16
2018-07-26T00:17:54.910Z,955.13
2018-07-26T00:18:54.907Z,955.13
2018-07-26T00:19:54.904Z,955.15
2018-07-26T00:20:54.901Z,955.13
2018-07-26T00:21:54.897Z,955.15
2018-07-26T00:22:54.895Z,955.14
2018-07-26T00:23:54.892Z,955.18
2018-07-26T00:24:54.887Z,955.11
2018-07-26T00:25:54.885Z,955.17
2018-07-26T00:26:54.882Z,955.15
2018-07-26T00:27:54.879Z,955.15
2018-07-26T00:28:54.874Z,955.12
2018-07-26T00:29:54.873Z,955.15
2018-07-26T00:30:54.871Z,955.15
2018-07-26T00:31:54.868Z,955.17
2018-07-26T00:32:54.863Z,955.15
2018-07-26T00:33:54.858Z,955.17
2018-07-26T00:34:54.857Z,955.18
2018-07-26T00:35:54.852Z,955.15
2018-07-26T00:36:54.851Z,955.16
2018-07-26T00:37:54.847Z,955.1
2018-07-26T00:38:54.843Z,955.16
2018-07-26T00:39:54.841Z,955.16
2018-07-26T00:40:54.837Z,955.13
2018-07-26T00:41:54.834Z,955.15
2018-07-26T00:42:54.831Z,955.13
2018-07-26T00:43:54.827Z,955.12
2018-07-26T00:44:54.824Z,955.14
2018-07-26T00:45:54.820Z,955.16
2018-07-26T00:46:54.816Z,955.17
2018-07-26T00:47:54.812Z,955.19
2018-07-26T00:48:54.812Z,955.18
2018-07-26T00:49:54.808Z,955.21
2018-07-26T00:50:54.803Z,955.18
2018-07-26T00:51:54.801Z,955.17
2018-07-26T00:52:54.797Z,955.16
2018-07-26T00:53:54.793Z,955.18
2018-07-26T00:54:54.790Z,955.18
2018-07-26T00:55:54.786Z,955.23
2018-07-26T00:56:54.782Z,955.22
2018-07-26T00:57:54.779Z,955.24
2018-07-26T00:58:54.776Z,955.25
2018-07-26T00:59:54.771Z,955.24
2018-07-26T01:00:54.771Z,955.22
2018-07-26T01:01:54.765Z,955.19
2018-07-26T01:02:54.762Z,955.17
2018-07-26T01:03:54.758Z,955.18
2018-07-26T01:04:54.755Z,955.19
2018-07-26T01:05:54.752Z,955.21
2018-07-26T01:06:54.747Z,955.2
2018-07-26T01:07:54.744Z,955.22
2018-07-26T01:08:54.740Z,955.23
2018-07-26T01:09:54.736Z,955.25
2018-07-26T01:10:54.732Z,955.2
2018-07-26T01:11:54.730Z,955.2
2018-07-26T01:12:54.725Z,955.22
2018-07-26T01:13:54.722Z,955.21
2018-07-26T01:14:54.721Z,955.2
2018-07-26T01:15:54.715Z,955.21
2018-07-26T01:16:54.711Z,955.22
2018-07-26T01:17:54.707Z,955.2
2018-07-26T01:18:54.703Z,955.21
2018-07-26T01:19:54.703Z,955.25
2018-07-26T01:20:54.697Z,955.22
2018-07-26T01:21:54.694Z,955.24
2018-07-26T01:22:54.690Z,955.22
2018-07-26T01:23:54.686Z,955.26
2018-07-26T01:24:54.682Z,955.21
2018-07-26T01:25:54.678Z,955.25
2018-07-26T01:26:54.673Z,955.24
2018-07-26T01:27:54.672Z,955.27
2018-07-26T01:28:54.667Z,955.26
2018-07-26T01:29:54.663Z,955.25
2018-07-26T01:30:54.662Z,955.22
2018-07-26T01:31:54.665Z,955.24
2018-07-26T01:32:54.651Z,955.21
2018-07-26T01:33:54.648Z,955.21
2018-07-26T01:34:54.644Z,955.22
2018-07-26T01:35:54.642Z,955.23
2018-07-26T01:36:54.637Z,955.24
2018-07-26T01:37:54.632Z,955.21
2018-07-26T01:38:54.629Z,955.2
2018-07-26T01:39:54.624Z,955.23
2018-07-26T01:40:54.622Z,955.21
2018-07-26T01:41:54.619Z,955.18
2018-07-26T01:42:54.616Z,955.24
2018-07-26T01:43:54.610Z,955.19
2018-07-26T01:44:54.607Z,955.18
2018-07-26T01:45:54.601Z,955.18
2018-07-26T01:46:54.599Z,955.15
2018-07-26T01:47:54.595Z,955.15
2018-07-26T01:48:54.594Z,955.17
2018-07-26T01:49:54.588Z,955.14
2018-07-26T01:50:54.584Z,955.11
2018-07-26T01:51:54.579Z,955.11
2018-07-26T01:52:54.578Z,955.11
2018-07-26T01:53:54.571Z,955.13
2018-07-26T01:54:54.567Z,955.12
2018-07-26T01:55:54.565Z,955.1
2018-07-26T01:56:54.562Z,955.1
2018-07-26T01:57:54.556Z,955.09
2018-07-26T01:58:54.552Z,955.06
2018-07-26T01:59:54.547Z,955.1
2018-07-26T02:00:54.545Z,955.09
2018-07-26T02:01:54.543Z,955.09
2018-07-26T02:02:54.537Z,955.08
2018-07-26T02:03:54.532Z,955.06
2018-07-26T02:04:54.529Z,955.09
2018-07-26T02:05:54.526Z,955.06
2018-07-26T02:06:54.519Z,955.11
2018-07-26T02:07:54.517Z,955.05
2018-07-26T02:08:54.512Z,955.04
2018-07-26T02:09:54.509Z,955.06
2018-07-26T02:10:54.506Z,955.04
2018-07-26T02:11:54.501Z,955.06
2018-07-26T02:12:54.499Z,955.03
2018-07-26T02:13:54.493Z,955.06
2018-07-26T02:14:54.489Z,955.07
2018-07-26T02:15:54.487Z,955.03
2018-07-26T02:16:54.480Z,955.07
2018-07-26T02:17:54.476Z,955.07
2018-07-26T02:18:54.472Z,955.08
2018-07-26T02:19:54.468Z,955.06
2018-07-26T02:20:54.467Z,955.07
2018-07-26T02:21:54.465Z,955.09
2018-07-26T02:22:54.455Z,955.08
2018-07-26T02:23:54.453Z,955.06
2018-07-26T02:24:54.447Z,955.08
2018-07-26T02:25:54.444Z,955.1
2018-07-26T02:26:54.438Z,955.11
2018-07-26T02:27:54.435Z,955.08
2018-07-26T02:28:54.431Z,955.07
2018-07-26T02:29:54.427Z,955.03
2018-07-26T02:30:54.474Z,955.04
2018-07-26T02:31:54.419Z,955
2018-07-26T02:32:54.422Z,955.03
2018-07-26T02:33:54.410Z,955.02
2018-07-26T02:34:54.405Z,955.05
2018-07-26T02:35:54.410Z,955.1
2018-07-26T02:36:54.551Z,955.04
2018-07-26T02:37:54.392Z,955.06
2018-07-26T02:38:54.390Z,955.09
2018-07-26T02:39:54.390Z,955.04
2018-07-26T02:40:54.385Z,955.08
2018-07-26T02:41:54.376Z,955.07
2018-07-26T02:42:54.371Z,955.11
2018-07-26T02:43:54.366Z,955.1
2018-07-26T02:44:54.361Z,955.08
2018-07-26T02:45:54.358Z,955.07
2018-07-26T02:46:54.354Z,955.06
2018-07-26T02:47:54.351Z,955.12
2018-07-26T02:48:54.346Z,955.08
2018-07-26T02:49:54.341Z,955.1
2018-07-26T02:50:54.338Z,955.13
2018-07-26T02:51:54.333Z,955.08
2018-07-26T02:52:54.328Z,955.12
2018-07-26T02:53:54.324Z,955.11
2018-07-26T02:54:54.319Z,955.07
2018-07-26T02:55:54.314Z,955.08
2018-07-26T02:56:54.310Z,955.07
2018-07-26T02:57:54.304Z,955.1
2018-07-26T02:58:54.300Z,955.05
2018-07-26T02:59:54.297Z,955.07
2018-07-26T03:00:54.292Z,955.07
2018-07-26T03:01:54.286Z,955.07
2018-07-26T03:02:54.282Z,955.06
2018-07-26T03:03:54.278Z,955.04
2018-07-26T03:04:54.274Z,955.06
2018-07-26T03:05:54.269Z,955.1
2018-07-26T03:06:54.265Z,955.08
2018-07-26T03:07:54.266Z,955.09
2018-07-26T03:08:54.260Z,955.12
2018-07-26T03:09:54.262Z,955.08
2018-07-26T03:10:54.247Z,955.07
2018-07-26T03:11:54.241Z,955.14
2018-07-26T03:12:54.238Z,955.11
2018-07-26T03:13:54.234Z,955.11
2018-07-26T03:14:54.233Z,955.07
2018-07-26T03:15:54.224Z,955.1
2018-07-26T03:16:54.220Z,955.1
2018-07-26T03:17:54.220Z,955.1
2018-07-26T03:18:54.213Z,955.13
2018-07-26T03:19:54.205Z,955.15
2018-07-26T03:20:54.262Z,955.19
2018-07-26T03:21:54.199Z,955.17
2018-07-26T03:22:54.195Z,955.15
2018-07-26T03:23:54.189Z,955.18
2018-07-26T03:24:54.188Z,955.18
2018-07-26T03:25:54.180Z,955.17
2018-07-26T03:26:54.174Z,955.21
2018-07-26T03:27:54.169Z,955.19
2018-07-26T03:28:54.166Z,955.18
2018-07-26T03:29:54.161Z,955.19
2018-07-26T03:30:54.156Z,955.17
2018-07-26T03:31:54.152Z,955.19
2018-07-26T03:32:54.147Z,955.24
2018-07-26T03:33:54.142Z,955.23
2018-07-26T03:34:54.138Z,955.28
2018-07-26T03:35:54.133Z,955.24
2018-07-26T03:36:54.131Z,955.28
2018-07-26T03:37:54.124Z,955.29
2018-07-26T03:38:54.121Z,955.32
2018-07-26T03:39:54.116Z,955.31
2018-07-26T03:40:54.117Z,955.34
2018-07-26T03:41:54.106Z,955.35
2018-07-26T03:42:54.101Z,955.38
2018-07-26T03:43:54.098Z,955.4
2018-07-26T03:44:54.092Z,955.39
2018-07-26T03:45:54.087Z,955.41
2018-07-26T03:46:54.082Z,955.38
2018-07-26T03:47:54.078Z,955.39
2018-07-26T03:48:54.073Z,955.37
2018-07-26T03:49:54.068Z,955.4
2018-07-26T03:50:54.063Z,955.41
2018-07-26T03:51:54.062Z,955.4
2018-07-26T03:52:54.054Z,955.38
2018-07-26T03:53:54.051Z,955.41
2018-07-26T03:54:54.046Z,955.39
2018-07-26T03:55:54.041Z,955.39
2018-07-26T03:56:54.036Z,955.41
2018-07-26T03:57:54.084Z,955.36
2018-07-26T03:58:54.027Z,955.38
2018-07-26T03:59:54.020Z,955.38
2018-07-26T04:00:54.016Z,955.4
2018-07-26T04:01:54.013Z,955.36
2018-07-26T04:02:54.008Z,955.4
2018-07-26T04:03:54.004Z,955.39
2018-07-26T04:04:54.002Z,955.4
2018-07-26T04:05:53.995Z,955.43
2018-07-26T04:06:53.990Z,955.41
2018-07-26T04:07:53.983Z,955.42
2018-07-26T04:08:53.978Z,955.47
2018-07-26T04:09:53.974Z,955.46
2018-07-26T04:10:53.970Z,955.48
2018-07-26T04:11:53.966Z,955.48
2018-07-26T04:12:53.961Z,955.49
2018-07-26T04:13:53.960Z,955.44
2018-07-26T04:14:53.951Z,955.45
2018-07-26T04:15:53.948Z,955.49
2018-07-26T04:16:53.943Z,955.49
2018-07-26T04:17:53.940Z,955.46
2018-07-26T04:18:53.933Z,955.5
2018-07-26T04:19:53.928Z,955.47
2018-07-26T04:20:53.927Z,955.45
2018-07-26T04:21:53.919Z,955.51
2018-07-26T04:22:53.914Z,955.5
2018-07-26T04:23:53.911Z,955.48
2018-07-26T04:24:53.906Z,955.48
2018-07-26T04:25:53.901Z,955.49
2018-07-26T04:26:53.899Z,955.41
2018-07-26T04:27:53.892Z,955.49
2018-07-26T04:28:53.887Z,955.45
2018-07-26T04:29:53.882Z,955.45
2018-07-26T04:30:53.879Z,955.44
2018-07-26T04:31:53.954Z,955.47
2018-07-26T04:32:53.868Z,955.51
2018-07-26T04:33:53.865Z,955.48
2018-07-26T04:34:53.859Z,955.45
2018-07-26T04:35:53.856Z,955.49
2018-07-26T04:36:53.854Z,955.5
2018-07-26T04:37:53.845Z,955.48
2018-07-26T04:38:53.841Z,955.48
2018-07-26T04:39:53.837Z,955.52
2018-07-26T04:40:53.832Z,955.52
2018-07-26T04:41:53.828Z,955.53
2018-07-26T04:42:53.835Z,955.48
2018-07-26T04:43:53.817Z,955.5
2018-07-26T04:44:53.813Z,955.52
2018-07-26T04:45:53.809Z,955.51
2018-07-26T04:46:53.804Z,955.54
2018-07-26T04:47:53.798Z,955.55
2018-07-26T04:48:53.845Z,955.56
2018-07-26T04:49:53.789Z,955.55
2018-07-26T04:50:53.786Z,955.57
2018-07-26T04:51:53.782Z,955.57
2018-07-26T04:52:53.803Z,955.55
2018-07-26T04:53:53.773Z,955.56
2018-07-26T04:54:53.769Z,955.56
2018-07-26T04:55:53.763Z,955.55
2018-07-26T04:56:53.759Z,955.56
2018-07-26T04:57:53.756Z,955.56
2018-07-26T04:58:53.751Z,955.57
2018-07-26T04:59:53.748Z,955.57
2018-07-26T05:00:53.744Z,955.57
2018-07-26T05:01:53.742Z,955.6
2018-07-26T05:02:53.734Z,955.62
2018-07-26T05:03:53.731Z,955.63
2018-07-26T05:04:53.725Z,955.6
2018-07-26T05:05:53.720Z,955.61
2018-07-26T05:06:53.718Z,955.65
2018-07-26T05:07:53.713Z,955.65
2018-07-26T05:08:53.709Z,955.64
2018-07-26T05:09:53.703Z,955.7
2018-07-26T05:10:53.701Z,955.7
2018-07-26T05:11:53.698Z,955.71
2018-07-26T05:12:53.693Z,955.71
2018-07-26T05:13:53.687Z,955.66
2018-07-26T05:14:53.683Z,955.69
2018-07-26T05:15:53.680Z,955.69
2018-07-26T05:16:53.675Z,955.67
2018-07-26T05:17:53.671Z,955.67
2018-07-26T05:18:53.676Z,955.68
2018-07-26T05:19:53.666Z,955.7
2018-07-26T05:20:53.662Z,955.72
2018-07-26T05:21:53.659Z,955.71
2018-07-26T05:22:53.654Z,955.7
2018-07-26T05:23:53.649Z,955.7
2018-07-26T05:24:53.647Z,955.74
2018-07-26T05:25:53.644Z,955.72
2018-07-26T05:26:53.640Z,955.74
2018-07-26T05:27:53.635Z,955.75
2018-07-26T05:28:53.633Z,955.76
2018-07-26T05:29:53.629Z,955.75
2018-07-26T05:30:53.626Z,955.73
2018-07-26T05:31:53.624Z,955.69
2018-07-26T05:32:53.619Z,955.7
2018-07-26T05:33:53.615Z,955.69
2018-07-26T05:34:53.610Z,955.67
2018-07-26T05:35:53.607Z,955.63
2018-07-26T05:36:53.604Z,955.67
2018-07-26T05:37:53.616Z,955.68
2018-07-26T05:38:53.597Z,955.66
2018-07-26T05:39:53.595Z,955.72
2018-07-26T05:40:53.592Z,955.73
2018-07-26T05:41:53.591Z,955.7
2018-07-26T05:42:53.585Z,955.71
2018-07-26T05:43:53.582Z,955.74
2018-07-26T05:44:53.578Z,955.75
2018-07-26T05:45:53.577Z,955.78
2018-07-26T05:46:53.571Z,955.75
2018-07-26T05:47:53.570Z,955.74
2018-07-26T05:48:53.567Z,955.78
2018-07-26T05:49:53.563Z,955.77
2018-07-26T05:50:53.600Z,955.79
2018-07-26T05:51:53.562Z,955.78
2018-07-26T05:52:53.554Z,955.77
2018-07-26T05:53:53.551Z,955.78
2018-07-26T05:54:53.547Z,955.79
2018-07-26T05:55:53.545Z,955.78
2018-07-26T05:56:53.542Z,955.77
2018-07-26T05:57:53.541Z,955.8
2018-07-26T05:58:53.536Z,955.79
2018-07-26T05:59:53.535Z,955.83
2018-07-26T06:00:53.531Z,955.81
2018-07-26T06:01:53.539Z,955.8
2018-07-26T06:02:53.526Z,955.84
2018-07-26T06:03:53.523Z,955.83
2018-07-26T06:04:53.527Z,955.86
2018-07-26T06:05:53.517Z,955.84
2018-07-26T06:06:53.516Z,955.87
2018-07-26T06:07:53.514Z,955.88
2018-07-26T06:08:53.510Z,955.89
2018-07-26T06:09:53.510Z,955.91
2018-07-26T06:10:53.506Z,955.91
2018-07-26T06:11:53.503Z,955.94
2018-07-26T06:12:53.505Z,955.92
2018-07-26T06:13:53.499Z,955.96
2018-07-26T06:14:53.498Z,955.94
2018-07-26T06:15:53.494Z,955.95
2018-07-26T06:16:53.493Z,955.94
2018-07-26T06:17:53.492Z,955.91
2018-07-26T06:18:53.488Z,955.95
2018-07-26T06:19:53.487Z,955.98
2018-07-26T06:20:53.485Z,955.97
2018-07-26T06:21:53.483Z,955.96
2018-07-26T06:22:53.480Z,955.97
2018-07-26T06:23:53.479Z,955.96
2018-07-26T06:24:53.477Z,956.02
2018-07-26T06:25:53.479Z,956.03
2018-07-26T06:26:53.474Z,956.05
2018-07-26T06:27:53.508Z,956.02
2018-07-26T06:28:53.471Z,956.06
2018-07-26T06:29:53.469Z,956.05
2018-07-26T06:30:53.468Z,956.05
2018-07-26T06:31:53.468Z,956.06
2018-07-26T06:32:53.468Z,956.04
2018-07-26T06:33:53.464Z,956.02
2018-07-26T06:34:53.463Z,956.02
2018-07-26T06:35:53.461Z,956.03
2018-07-26T06:36:53.460Z,956.04
2018-07-26T06:37:53.457Z,956.05
2018-07-26T06:38:53.456Z,956.07
2018-07-26T06:39:53.458Z,956.09
2018-07-26T06:40:53.454Z,956.09
2018-07-26T06:41:53.455Z,956.12
2018-07-26T06:42:53.451Z,956.12
2018-07-26T06:43:53.450Z,956.13
2018-07-26T06:44:53.449Z,956.11
2018-07-26T06:45:53.450Z,956.12
2018-07-26T06:46:53.448Z,956.13
2018-07-26T06:47:53.445Z,956.07
2018-07-26T06:48:53.445Z,956.09
2018-07-26T06:49:53.445Z,956.12
2018-07-26T06:50:53.443Z,956.14
2018-07-26T06:51:53.443Z,956.14
2018-07-26T06:52:53.443Z,956.16
2018-07-26T06:53:53.444Z,956.14
2018-07-26T06:54:53.449Z,956.17
2018-07-26T06:55:53.441Z,956.17
2018-07-26T06:56:53.442Z,956.18
2018-07-26T06:57:53.442Z,956.15
2018-07-26T06:58:53.443Z,956.18
2018-07-26T06:59:53.443Z,956.16
2018-07-26T07:00:53.475Z,956.24
2018-07-26T07:01:53.447Z,956.21
2018-07-26T07:02:53.451Z,956.23
2018-07-26T07:03:53.450Z,956.24
2018-07-26T07:04:53.458Z,956.26
2018-07-26T07:05:53.455Z,956.22
2018-07-26T07:06:53.464Z,956.17
2018-07-26T07:07:53.463Z,956.19
2018-07-26T07:08:53.466Z,956.2
2018-07-26T07:09:53.469Z,956.24
2018-07-26T07:10:53.473Z,956.2
2018-07-26T07:11:53.478Z,956.21
2018-07-26T07:12:53.490Z,956.25
2018-07-26T07:13:53.488Z,956.28
2018-07-26T07:14:53.492Z,956.26
2018-07-26T07:15:53.497Z,956.26
2018-07-26T07:16:53.504Z,956.24
2018-07-26T07:17:53.510Z,956.21
2018-07-26T07:18:53.515Z,956.23
2018-07-26T07:19:53.522Z,956.22
2018-07-26T07:20:53.526Z,956.26
2018-07-26T07:21:53.532Z,956.28
2018-07-26T07:22:53.540Z,956.26
2018-07-26T07:23:53.546Z,956.29
2018-07-26T07:24:53.553Z,956.23
2018-07-26T07:25:53.560Z,956.23
2018-07-26T07:26:53.567Z,956.23
2018-07-26T07:27:53.629Z,956.12
2018-07-26T07:28:53.582Z,956.2
2018-07-26T07:29:53.590Z,956.25
2018-07-26T07:30:53.596Z,956.24
2018-07-26T07:31:53.602Z,956.23
2018-07-26T07:32:53.610Z,956.24
2018-07-26T07:33:53.617Z,956.26
2018-07-26T07:34:53.627Z,956.21
2018-07-26T07:35:53.634Z,956.21
2018-07-26T07:36:53.643Z,956.24
2018-07-26T07:37:53.651Z,956.26
2018-07-26T07:38:53.658Z,956.24
2018-07-26T07:39:53.666Z,956.25
2018-07-26T07:40:53.674Z,956.35
2018-07-26T07:41:53.685Z,956.4
2018-07-26T07:42:53.695Z,956.41
2018-07-26T07:43:53.700Z,956.35
2018-07-26T07:44:53.712Z,956.35
2018-07-26T07:45:53.717Z,956.38
2018-07-26T07:46:53.727Z,956.42
2018-07-26T07:47:53.734Z,956.44
2018-07-26T07:48:53.745Z,956.47
2018-07-26T07:49:53.753Z,956.47
2018-07-26T07:50:53.763Z,956.52
2018-07-26T07:51:53.771Z,956.71
2018-07-26T07:52:53.813Z,956.84
2018-07-26T07:53:53.787Z,956.87
2018-07-26T07:54:53.798Z,956.91
2018-07-26T07:55:53.805Z,956.99
2018-07-26T07:56:53.814Z,956.72
2018-07-26T07:57:53.823Z,956.3
2018-07-26T07:58:53.832Z,956.08
2018-07-26T07:59:53.928Z,956.05
2018-07-26T08:00:53.850Z,956.07
2018-07-26T08:01:53.858Z,956.03
2018-07-26T08:02:53.868Z,956.05
2018-07-26T08:03:53.875Z,956.08
2018-07-26T08:04:53.884Z,956.06
2018-07-26T08:05:53.894Z,956.13
2018-07-26T08:06:53.900Z,956.12
2018-07-26T08:07:53.908Z,956.1
2018-07-26T08:08:53.918Z,956.11
2018-07-26T08:09:53.929Z,956.13
2018-07-26T08:10:53.932Z,956.1
2018-07-26T08:11:53.940Z,956.13
2018-07-26T08:12:53.946Z,956.1
2018-07-26T08:13:53.952Z,956.12
2018-07-26T08:14:53.961Z,956.14
2018-07-26T08:15:53.967Z,956.08
2018-07-26T08:16:53.972Z,956.1
2018-07-26T08:17:53.987Z,956.08
2018-07-26T08:18:53.987Z,956.08
2018-07-26T08:19:53.994Z,956.08
2018-07-26T08:20:54.001Z,956.1
2018-07-26T08:21:54.005Z,956.14
2018-07-26T08:22:54.012Z,956.14
2018-07-26T08:23:54.021Z,956.15
2018-07-26T08:24:54.024Z,956.1
2018-07-26T08:25:54.030Z,956.15
2018-07-26T08:26:54.036Z,956.09
2018-07-26T08:27:54.044Z,956.08
2018-07-26T08:28:54.046Z,956.09
2018-07-26T08:29:54.054Z,956.1
2018-07-26T08:30:54.057Z,956.11
2018-07-26T08:31:54.062Z,956.1
2018-07-26T08:32:54.068Z,956.12
2018-07-26T08:33:54.073Z,956.12
2018-07-26T08:34:54.078Z,956.12
2018-07-26T08:35:54.083Z,956.11
2018-07-26T08:36:54.090Z,956.1
2018-07-26T08:37:54.092Z,956.05
2018-07-26T08:38:54.097Z,956.09
2018-07-26T08:39:54.101Z,956.08
2018-07-26T08:40:54.108Z,956.1
2018-07-26T08:41:54.111Z,956.09
2018-07-26T08:42:54.116Z,956.1
2018-07-26T08:43:54.121Z,956.16
2018-07-26T08:44:54.125Z,956.12
2018-07-26T08:45:54.131Z,956.1
2018-07-26T08:46:54.136Z,956.09
2018-07-26T08:47:54.139Z,956.12
2018-07-26T08:48:54.145Z,956.08
2018-07-26T08:49:54.156Z,956.09
2018-07-26T08:50:54.153Z,956.08
2018-07-26T08:51:54.158Z,956.08
2018-07-26T08:52:54.162Z,956.08
2018-07-26T08:53:54.168Z,956.09
2018-07-26T08:54:54.172Z,956.15
2018-07-26T08:55:54.174Z,956.1
2018-07-26T08:56:54.179Z,956.11
2018-07-26T08:57:54.185Z,956.14
2018-07-26T08:58:54.191Z,956.11
2018-07-26T08:59:54.193Z,956.05
2018-07-26T09:00:54.198Z,956.1
2018-07-26T09:01:54.202Z,956.07
2018-07-26T09:02:54.213Z,956.1
2018-07-26T09:03:54.211Z,956.12
2018-07-26T09:04:54.215Z,956.19
2018-07-26T09:05:54.223Z,956.2
2018-07-26T09:06:54.223Z,956.17
2018-07-26T09:07:54.229Z,956.16
2018-07-26T09:08:54.233Z,956.14
2018-07-26T09:09:54.258Z,956.17
2018-07-26T09:10:54.278Z,956.15
2018-07-26T09:11:54.248Z,956.16
2018-07-26T09:12:54.251Z,956.14
2018-07-26T09:13:54.292Z,956.17
2018-07-26T09:14:54.261Z,956.23
2018-07-26T09:15:54.264Z,956.16
2018-07-26T09:16:54.269Z,956.14
2018-07-26T09:17:54.273Z,956.19
2018-07-26T09:18:54.276Z,956.17
2018-07-26T09:19:54.288Z,956.11
2018-07-26T09:20:54.285Z,956.18
2018-07-26T09:21:54.289Z,956.13
2018-07-26T09:22:54.295Z,956.12
2018-07-26T09:23:54.297Z,956.14
2018-07-26T09:24:54.306Z,956.13
2018-07-26T09:25:54.306Z,956.08
2018-07-26T09:26:54.311Z,956.11
2018-07-26T09:27:54.317Z,956.13
2018-07-26T09:28:54.363Z,956.13
2018-07-26T09:29:54.324Z,956.08
2018-07-26T09:30:54.327Z,956.04
2018-07-26T09:31:54.333Z,956.11
2018-07-26T09:32:54.352Z,956.06
2018-07-26T09:33:54.350Z,956.05
2018-07-26T09:34:54.345Z,956.11
2018-07-26T09:35:54.355Z,956.06
2018-07-26T09:36:54.353Z,956.06
2018-07-26T09:37:54.359Z,956.07
2018-07-26T09:38:54.364Z,956.03
2018-07-26T09:39:54.367Z,956.03
2018-07-26T09:40:54.373Z,956.04
2018-07-26T09:41:54.375Z,956.05
2018-07-26T09:42:54.383Z,956.03
2018-07-26T09:43:54.386Z,956.03
2018-07-26T09:44:54.389Z,956.03
2018-07-26T09:45:54.392Z,956
2018-07-26T09:46:54.398Z,956
2018-07-26T09:47:54.405Z,956
2018-07-26T09:48:54.406Z,955.93
2018-07-26T09:49:54.411Z,955.94
2018-07-26T09:50:54.416Z,955.9
2018-07-26T09:51:54.419Z,955.92
2018-07-26T09:52:54.425Z,955.92
2018-07-26T09:53:54.430Z,955.92
2018-07-26T09:54:54.486Z,955.9
2018-07-26T09:55:54.437Z,955.87
2018-07-26T09:56:54.444Z,955.93
2018-07-26T09:57:54.449Z,955.91
2018-07-26T09:58:54.452Z,955.94
2018-07-26T09:59:54.457Z,956
2018-07-26T10:00:54.462Z,955.96
2018-07-26T10:01:54.466Z,955.94
2018-07-26T10:02:54.472Z,955.97
2018-07-26T10:03:54.477Z,955.93
2018-07-26T10:04:54.481Z,955.91
2018-07-26T10:05:54.485Z,955.92
2018-07-26T10:06:54.555Z,955.91
2018-07-26T10:07:54.497Z,955.94
2018-07-26T10:08:54.500Z,955.91
2018-07-26T10:09:54.506Z,955.86
2018-07-26T10:10:54.513Z,955.87
2018-07-26T10:11:54.517Z,955.81
2018-07-26T10:12:54.519Z,955.83
2018-07-26T10:13:54.571Z,955.9
2018-07-26T10:14:54.625Z,955.85
2018-07-26T10:15:54.573Z,955.9
2018-07-26T10:16:54.540Z,955.88
2018-07-26T10:17:54.542Z,955.82
2018-07-26T10:18:54.547Z,955.82
2018-07-26T10:19:54.552Z,955.85
2018-07-26T10:20:54.557Z,955.86
2018-07-26T10:21:54.563Z,955.82
2018-07-26T10:22:54.578Z,955.81
2018-07-26T10:23:54.570Z,955.85
2018-07-26T10:24:54.576Z,955.8
2018-07-26T10:25:54.580Z,955.83
2018-07-26T10:26:54.587Z,955.77
2018-07-26T10:27:54.662Z,955.78
2018-07-26T10:28:54.596Z,955.73
2018-07-26T10:29:54.602Z,955.74
2018-07-26T10:30:54.604Z,955.79
2018-07-26T10:31:54.609Z,955.71
2018-07-26T10:32:54.616Z,955.72
2018-07-26T10:33:54.621Z,955.74
2018-07-26T10:34:54.625Z,955.74
2018-07-26T10:35:54.630Z,955.73
2018-07-26T10:36:54.638Z,955.73
2018-07-26T10:37:54.641Z,955.73
2018-07-26T10:38:54.645Z,955.75
2018-07-26T10:39:54.651Z,955.75
2018-07-26T10:40:54.656Z,955.67
2018-07-26T10:41:54.661Z,955.66
2018-07-26T10:42:54.665Z,955.7
2018-07-26T10:43:54.672Z,955.68
2018-07-26T10:44:54.676Z,955.65
2018-07-26T10:45:54.681Z,955.7
2018-07-26T10:46:54.687Z,955.75
2018-07-26T10:47:54.693Z,955.69
2018-07-26T10:48:54.697Z,955.71
2018-07-26T10:49:54.730Z,955.69
2018-07-26T10:50:54.706Z,955.67
2018-07-26T10:51:54.716Z,955.68
2018-07-26T10:52:54.718Z,955.64
2018-07-26T10:53:54.723Z,955.68
2018-07-26T10:54:54.727Z,955.64
2018-07-26T10:55:54.734Z,955.66
2018-07-26T10:56:54.738Z,955.66
2018-07-26T10:57:54.747Z,955.63
2018-07-26T10:58:54.749Z,955.68
2018-07-26T10:59:54.753Z,955.58
2018-07-26T11:00:54.761Z,955.67
2018-07-26T11:01:54.762Z,955.63
2018-07-26T11:02:54.770Z,955.62
2018-07-26T11:03:54.773Z,955.58
2018-07-26T11:04:54.779Z,955.6
2018-07-26T11:05:54.785Z,955.56
2018-07-26T11:06:54.790Z,955.56
2018-07-26T11:07:54.795Z,955.57
2018-07-26T11:08:54.802Z,955.55
2018-07-26T11:09:54.804Z,955.54
2018-07-26T11:10:54.813Z,955.53
2018-07-26T11:11:54.817Z,955.53
2018-07-26T11:12:54.824Z,955.48
2018-07-26T11:13:54.826Z,955.45
2018-07-26T11:14:54.836Z,955.5
2018-07-26T11:15:54.839Z,955.5
2018-07-26T11:16:54.845Z,955.43
2018-07-26T11:17:54.847Z,955.48
2018-07-26T11:18:54.891Z,955.48
2018-07-26T11:19:54.858Z,955.51
2018-07-26T11:20:54.865Z,955.48
2018-07-26T11:21:54.870Z,955.51
2018-07-26T11:22:54.875Z,955.44
2018-07-26T11:23:54.881Z,955.49
2018-07-26T11:24:54.886Z,955.44
2018-07-26T11:25:54.892Z,955.44
2018-07-26T11:26:54.898Z,955.39
2018-07-26T11:27:54.902Z,955.42
2018-07-26T11:28:54.910Z,955.41
2018-07-26T11:29:54.927Z,955.42
2018-07-26T11:30:54.919Z,955.44
2018-07-26T11:31:54.925Z,955.43
2018-07-26T11:32:54.929Z,955.45
2018-07-26T11:33:54.936Z,955.46
2018-07-26T11:34:54.941Z,955.45
2018-07-26T11:35:54.979Z,955.39
2018-07-26T11:36:54.950Z,955.39
2018-07-26T11:37:55.003Z,955.37
2018-07-26T11:38:54.961Z,955.33
2018-07-26T11:39:54.970Z,955.33
2018-07-26T11:40:54.971Z,955.33
2018-07-26T11:41:54.977Z,955.4
2018-07-26T11:42:54.983Z,955.34
2018-07-26T11:43:54.985Z,955.36
2018-07-26T11:44:54.990Z,955.37
2018-07-26T11:45:54.995Z,955.37
2018-07-26T11:46:55.002Z,955.39
2018-07-26T11:47:55.009Z,955.41
2018-07-26T11:48:55.011Z,955.36
2018-07-26T11:49:55.015Z,955.41
2018-07-26T11:50:55.020Z,955.37
2018-07-26T11:51:55.026Z,955.38
2018-07-26T11:52:55.033Z,955.38
2018-07-26T11:53:55.036Z,955.34
2018-07-26T11:54:55.038Z,955.34
2018-07-26T11:55:55.044Z,955.26
2018-07-26T11:56:55.083Z,955.21
2018-07-26T11:57:55.052Z,955.21
2018-07-26T11:58:55.056Z,955.28
2018-07-26T11:59:55.061Z,955.24
2018-07-26T12:00:55.075Z,955.15
2018-07-26T12:01:55.071Z,955.19
2018-07-26T12:02:55.074Z,955.21
2018-07-26T12:03:55.080Z,955.24
2018-07-26T12:04:55.083Z,955.21
2018-07-26T12:05:55.089Z,955.16
2018-07-26T12:06:55.093Z,955.2
2018-07-26T12:07:55.098Z,955.15
2018-07-26T12:08:55.111Z,955.17
2018-07-26T12:09:55.106Z,955.2
2018-07-26T12:10:55.113Z,955.17
2018-07-26T12:11:55.116Z,955.16
2018-07-26T12:12:55.120Z,955.11
2018-07-26T12:13:55.126Z,955.14
2018-07-26T12:14:55.135Z,955.16
2018-07-26T12:15:55.136Z,955.15
2018-07-26T12:16:55.141Z,955.14
2018-07-26T12:17:55.146Z,955.12
2018-07-26T12:18:55.150Z,955.15
2018-07-26T12:19:55.157Z,955.08
2018-07-26T12:20:55.161Z,955.15
2018-07-26T12:21:55.166Z,955.11
2018-07-26T12:22:55.170Z,955.15
2018-07-26T12:23:55.176Z,955.11
2018-07-26T12:24:55.180Z,955.05
2018-07-26T12:25:55.187Z,955.01
2018-07-26T12:26:55.251Z,955.07
2018-07-26T12:27:55.194Z,955.03
2018-07-26T12:28:55.201Z,955.08
2018-07-26T12:29:55.205Z,955
2018-07-26T12:30:55.212Z,955.03
2018-07-26T12:31:55.215Z,954.98